sensor_id;sensor_type;location;lat;lon;timestamp;P1;durP1;ratioP1;P2;durP2;ratioP2
18082;SDS011;9168;51.194;6.840;2022-10-16T00:01:05;2.67;;;1.35;;
18082;SDS011;9168;51.194;6.840;2022-10-16T00:03:34;5.07;;;1.20;;
18082;SDS011;9168;51.194;6.840;2022-10-16T00:06:01;7.65;;;1.77;;
18082;SDS011;9168;51.194;6.840;2022-10-16T00:08:29;4.95;;;1.50;;
18082;SDS011;9168;51.194;6.840;2022-10-16T00:10:59;5.60;;;1.50;;
18082;SDS011;9168;51.194;6.840;2022-10-16T00:13:28;6.30;;;1.30;;
18082;SDS011;9168;51.194;6.840;2022-10-16T00:15:56;5.13;;;1.45;;
18082;SDS011;9168;51.194;6.840;2022-10-16T00:18:24;4.75;;;1.58;;
18082;SDS011;9168;51.194;6.840;2022-10-16T00:20:51;7.93;;;1.35;;
18082;SDS011;9168;51.194;6.840;2022-10-16T00:23:18;5.30;;;1.50;;
18082;SDS011;9168;51.194;6.840;2022-10-16T00:25:54;5.00;;;1.67;;
18082;SDS011;9168;51.194;6.840;2022-10-16T00:28:21;8.32;;;1.45;;
18082;SDS011;9168;51.194;6.840;2022-10-16T00:30:48;2.70;;;1.30;;
18082;SDS011;9168;51.194;6.840;2022-10-16T00:33:17;6.68;;;1.30;;
18082;SDS011;9168;51.194;6.840;2022-10-16T00:35:43;6.18;;;1.70;;
18082;SDS011;9168;51.194;6.840;2022-10-16T00:38:11;3.90;;;1.60;;
18082;SDS011;9168;51.194;6.840;2022-10-16T00:40:38;3.80;;;2.20;;
18082;SDS011;9168;51.194;6.840;2022-10-16T00:43:08;3.80;;;1.70;;
18082;SDS011;9168;51.194;6.840;2022-10-16T00:45:39;3.22;;;1.90;;
18082;SDS011;9168;51.194;6.840;2022-10-16T00:48:06;3.50;;;1.60;;
18082;SDS011;9168;51.194;6.840;2022-10-16T00:50:39;5.72;;;1.60;;
18082;SDS011;9168;51.194;6.840;2022-10-16T00:53:08;4.65;;;1.58;;
18082;SDS011;9168;51.194;6.840;2022-10-16T00:55:37;7.13;;;1.80;;
18082;SDS011;9168;51.194;6.840;2022-10-16T00:58:04;4.20;;;1.52;;
18082;SDS011;9168;51.194;6.840;2022-10-16T01:00:31;5.93;;;1.80;;
18082;SDS011;9168;51.194;6.840;2022-10-16T01:02:59;4.43;;;1.42;;
18082;SDS011;9168;51.194;6.840;2022-10-16T01:05:30;12.23;;;1.80;;
18082;SDS011;9168;51.194;6.840;2022-10-16T01:08:04;4.07;;;2.22;;
18082;SDS011;9168;51.194;6.840;2022-10-16T01:10:39;10.88;;;2.17;;
18082;SDS011;9168;51.194;6.840;2022-10-16T01:13:11;9.77;;;2.15;;
18082;SDS011;9168;51.194;6.840;2022-10-16T01:15:45;21.17;;;2.50;;
18082;SDS011;9168;51.194;6.840;2022-10-16T01:18:17;12.20;;;2.20;;
18082;SDS011;9168;51.194;6.840;2022-10-16T01:20:49;6.95;;;2.03;;
18082;SDS011;9168;51.194;6.840;2022-10-16T01:23:27;8.25;;;1.92;;
18082;SDS011;9168;51.194;6.840;2022-10-16T01:26:11;11.07;;;2.45;;
18082;SDS011;9168;51.194;6.840;2022-10-16T01:28:48;4.65;;;1.80;;
18082;SDS011;9168;51.194;6.840;2022-10-16T01:31:19;12.60;;;2.40;;
18082;SDS011;9168;51.194;6.840;2022-10-16T01:33:51;6.97;;;2.15;;
18082;SDS011;9168;51.194;6.840;2022-10-16T01:36:25;6.75;;;2.15;;
18082;SDS011;9168;51.194;6.840;2022-10-16T01:38:57;11.00;;;1.80;;
18082;SDS011;9168;51.194;6.840;2022-10-16T01:41:28;3.90;;;1.58;;
18082;SDS011;9168;51.194;6.840;2022-10-16T01:44:01;4.20;;;1.55;;
18082;SDS011;9168;51.194;6.840;2022-10-16T01:46:31;4.85;;;1.52;;
18082;SDS011;9168;51.194;6.840;2022-10-16T01:48:59;6.20;;;1.80;;
18082;SDS011;9168;51.194;6.840;2022-10-16T01:51:28;4.10;;;1.33;;
18082;SDS011;9168;51.194;6.840;2022-10-16T01:53:56;5.68;;;1.60;;
18082;SDS011;9168;51.194;6.840;2022-10-16T01:56:26;12.57;;;1.85;;
18082;SDS011;9168;51.194;6.840;2022-10-16T01:58:54;5.10;;;1.65;;
18082;SDS011;9168;51.194;6.840;2022-10-16T02:01:26;1.80;;;1.42;;
18082;SDS011;9168;51.194;6.840;2022-10-16T02:03:56;2.40;;;1.40;;
18082;SDS011;9168;51.194;6.840;2022-10-16T02:06:26;8.60;;;1.80;;
18082;SDS011;9168;51.194;6.840;2022-10-16T02:08:53;4.82;;;1.73;;
18082;SDS011;9168;51.194;6.840;2022-10-16T02:11:20;4.97;;;2.22;;
18082;SDS011;9168;51.194;6.840;2022-10-16T02:13:48;5.75;;;1.75;;
18082;SDS011;9168;51.194;6.840;2022-10-16T02:16:19;4.50;;;1.95;;
18082;SDS011;9168;51.194;6.840;2022-10-16T02:18:47;5.60;;;1.58;;
18082;SDS011;9168;51.194;6.840;2022-10-16T02:21:16;3.20;;;1.50;;
18082;SDS011;9168;51.194;6.840;2022-10-16T02:23:50;9.63;;;1.65;;
18082;SDS011;9168;51.194;6.840;2022-10-16T02:26:25;6.25;;;1.50;;
18082;SDS011;9168;51.194;6.840;2022-10-16T02:28:55;5.15;;;1.70;;
18082;SDS011;9168;51.194;6.840;2022-10-16T02:31:27;7.78;;;1.90;;
18082;SDS011;9168;51.194;6.840;2022-10-16T02:34:00;4.47;;;1.63;;
18082;SDS011;9168;51.194;6.840;2022-10-16T02:36:30;4.88;;;2.03;;
18082;SDS011;9168;51.194;6.840;2022-10-16T02:38:58;3.58;;;1.80;;
18082;SDS011;9168;51.194;6.840;2022-10-16T02:41:26;5.85;;;1.80;;
18082;SDS011;9168;51.194;6.840;2022-10-16T02:43:54;3.10;;;1.60;;
18082;SDS011;9168;51.194;6.840;2022-10-16T02:46:21;7.10;;;1.70;;
18082;SDS011;9168;51.194;6.840;2022-10-16T02:48:48;4.97;;;2.20;;
18082;SDS011;9168;51.194;6.840;2022-10-16T02:51:16;5.70;;;1.75;;
18082;SDS011;9168;51.194;6.840;2022-10-16T02:53:43;4.65;;;1.85;;
18082;SDS011;9168;51.194;6.840;2022-10-16T02:56:10;6.35;;;1.95;;
18082;SDS011;9168;51.194;6.840;2022-10-16T02:58:37;7.82;;;1.83;;
18082;SDS011;9168;51.194;6.840;2022-10-16T03:01:04;5.00;;;1.50;;
18082;SDS011;9168;51.194;6.840;2022-10-16T03:03:30;6.25;;;1.77;;
18082;SDS011;9168;51.194;6.840;2022-10-16T03:05:57;2.83;;;1.67;;
18082;SDS011;9168;51.194;6.840;2022-10-16T03:08:26;4.28;;;1.60;;
18082;SDS011;9168;51.194;6.840;2022-10-16T03:10:52;5.70;;;1.67;;
18082;SDS011;9168;51.194;6.840;2022-10-16T03:13:19;4.53;;;1.85;;
18082;SDS011;9168;51.194;6.840;2022-10-16T03:15:46;6.22;;;1.60;;
18082;SDS011;9168;51.194;6.840;2022-10-16T03:18:13;3.42;;;1.40;;
18082;SDS011;9168;51.194;6.840;2022-10-16T03:20:41;1.75;;;1.35;;
18082;SDS011;9168;51.194;6.840;2022-10-16T03:23:08;3.33;;;1.45;;
18082;SDS011;9168;51.194;6.840;2022-10-16T03:25:37;3.58;;;1.48;;
18082;SDS011;9168;51.194;6.840;2022-10-16T03:28:04;6.13;;;1.50;;
18082;SDS011;9168;51.194;6.840;2022-10-16T03:30:31;4.03;;;1.50;;
18082;SDS011;9168;51.194;6.840;2022-10-16T03:32:58;5.40;;;1.73;;
18082;SDS011;9168;51.194;6.840;2022-10-16T03:35:24;5.72;;;1.30;;
18082;SDS011;9168;51.194;6.840;2022-10-16T03:37:51;3.28;;;1.40;;
18082;SDS011;9168;51.194;6.840;2022-10-16T03:40:18;6.32;;;1.73;;
18082;SDS011;9168;51.194;6.840;2022-10-16T03:42:47;8.90;;;1.58;;
18082;SDS011;9168;51.194;6.840;2022-10-16T03:45:13;3.63;;;1.30;;
18082;SDS011;9168;51.194;6.840;2022-10-16T03:47:40;4.07;;;1.40;;
18082;SDS011;9168;51.194;6.840;2022-10-16T03:50:07;4.20;;;1.20;;
18082;SDS011;9168;51.194;6.840;2022-10-16T03:52:34;3.55;;;1.33;;
18082;SDS011;9168;51.194;6.840;2022-10-16T03:55:01;7.72;;;1.55;;
18082;SDS011;9168;51.194;6.840;2022-10-16T03:57:28;8.80;;;1.42;;
18082;SDS011;9168;51.194;6.840;2022-10-16T03:59:56;2.92;;;1.33;;
18082;SDS011;9168;51.194;6.840;2022-10-16T04:02:23;7.97;;;1.52;;
18082;SDS011;9168;51.194;6.840;2022-10-16T04:04:50;5.18;;;2.00;;
18082;SDS011;9168;51.194;6.840;2022-10-16T04:07:17;5.35;;;1.92;;
18082;SDS011;9168;51.194;6.840;2022-10-16T04:09:44;9.00;;;1.50;;
18082;SDS011;9168;51.194;6.840;2022-10-16T04:12:11;6.75;;;1.80;;
18082;SDS011;9168;51.194;6.840;2022-10-16T04:14:38;7.15;;;2.08;;
18082;SDS011;9168;51.194;6.840;2022-10-16T04:17:06;6.72;;;1.70;;
18082;SDS011;9168;51.194;6.840;2022-10-16T04:19:33;9.60;;;1.90;;
18082;SDS011;9168;51.194;6.840;2022-10-16T04:22:00;8.65;;;1.63;;
18082;SDS011;9168;51.194;6.840;2022-10-16T04:24:27;5.65;;;1.63;;
18082;SDS011;9168;51.194;6.840;2022-10-16T04:26:54;9.52;;;1.95;;
18082;SDS011;9168;51.194;6.840;2022-10-16T04:29:21;7.97;;;1.80;;
18082;SDS011;9168;51.194;6.840;2022-10-16T04:31:47;7.15;;;1.55;;
18082;SDS011;9168;51.194;6.840;2022-10-16T04:34:16;4.85;;;1.52;;
18082;SDS011;9168;51.194;6.840;2022-10-16T04:36:43;2.95;;;1.10;;
18082;SDS011;9168;51.194;6.840;2022-10-16T04:39:10;6.18;;;1.70;;
18082;SDS011;9168;51.194;6.840;2022-10-16T04:41:36;5.57;;;1.50;;
18082;SDS011;9168;51.194;6.840;2022-10-16T04:44:03;5.65;;;1.70;;
18082;SDS011;9168;51.194;6.840;2022-10-16T04:46:30;7.93;;;1.33;;
18082;SDS011;9168;51.194;6.840;2022-10-16T04:48:57;12.13;;;2.10;;
18082;SDS011;9168;51.194;6.840;2022-10-16T04:51:26;7.13;;;1.60;;
18082;SDS011;9168;51.194;6.840;2022-10-16T04:53:53;9.60;;;1.50;;
18082;SDS011;9168;51.194;6.840;2022-10-16T04:56:20;6.90;;;1.85;;
18082;SDS011;9168;51.194;6.840;2022-10-16T04:58:47;13.55;;;2.30;;
18082;SDS011;9168;51.194;6.840;2022-10-16T05:01:14;6.35;;;1.55;;
18082;SDS011;9168;51.194;6.840;2022-10-16T05:03:41;9.15;;;2.00;;
18082;SDS011;9168;51.194;6.840;2022-10-16T05:06:08;6.53;;;1.80;;
18082;SDS011;9168;51.194;6.840;2022-10-16T05:08:36;5.40;;;1.42;;
18082;SDS011;9168;51.194;6.840;2022-10-16T05:11:03;7.15;;;1.55;;
18082;SDS011;9168;51.194;6.840;2022-10-16T05:13:30;2.22;;;1.08;;
18082;SDS011;9168;51.194;6.840;2022-10-16T05:15:57;4.00;;;1.48;;
18082;SDS011;9168;51.194;6.840;2022-10-16T05:18:24;9.52;;;1.52;;
18082;SDS011;9168;51.194;6.840;2022-10-16T05:20:51;6.47;;;1.20;;
18082;SDS011;9168;51.194;6.840;2022-10-16T05:23:18;8.65;;;1.63;;
18082;SDS011;9168;51.194;6.840;2022-10-16T05:25:52;11.43;;;1.70;;
18082;SDS011;9168;51.194;6.840;2022-10-16T05:28:20;10.02;;;2.10;;
18082;SDS011;9168;51.194;6.840;2022-10-16T05:30:47;9.70;;;2.47;;
18082;SDS011;9168;51.194;6.840;2022-10-16T05:33:14;7.93;;;2.83;;
18082;SDS011;9168;51.194;6.840;2022-10-16T05:35:41;12.48;;;3.28;;
18082;SDS011;9168;51.194;6.840;2022-10-16T05:38:08;7.70;;;3.25;;
18082;SDS011;9168;51.194;6.840;2022-10-16T05:40:35;11.27;;;2.85;;
18082;SDS011;9168;51.194;6.840;2022-10-16T05:43:04;7.82;;;2.35;;
18082;SDS011;9168;51.194;6.840;2022-10-16T05:45:31;10.10;;;2.65;;
18082;SDS011;9168;51.194;6.840;2022-10-16T05:47:58;6.70;;;2.25;;
18082;SDS011;9168;51.194;6.840;2022-10-16T05:50:25;9.65;;;2.60;;
18082;SDS011;9168;51.194;6.840;2022-10-16T05:52:52;6.38;;;2.28;;
18082;SDS011;9168;51.194;6.840;2022-10-16T05:55:19;6.97;;;2.13;;
18082;SDS011;9168;51.194;6.840;2022-10-16T05:57:46;4.55;;;1.85;;
18082;SDS011;9168;51.194;6.840;2022-10-16T06:00:14;6.45;;;2.60;;
18082;SDS011;9168;51.194;6.840;2022-10-16T06:02:41;5.63;;;2.00;;
18082;SDS011;9168;51.194;6.840;2022-10-16T06:05:08;7.05;;;2.67;;
18082;SDS011;9168;51.194;6.840;2022-10-16T06:07:35;6.70;;;2.30;;
18082;SDS011;9168;51.194;6.840;2022-10-16T06:10:02;8.68;;;2.60;;
18082;SDS011;9168;51.194;6.840;2022-10-16T06:12:30;6.18;;;2.10;;
18082;SDS011;9168;51.194;6.840;2022-10-16T06:14:57;8.35;;;1.92;;
18082;SDS011;9168;51.194;6.840;2022-10-16T06:17:25;6.88;;;1.63;;
18082;SDS011;9168;51.194;6.840;2022-10-16T06:19:52;4.50;;;1.35;;
18082;SDS011;9168;51.194;6.840;2022-10-16T06:22:19;5.10;;;1.80;;
18082;SDS011;9168;51.194;6.840;2022-10-16T06:24:46;5.63;;;1.52;;
18082;SDS011;9168;51.194;6.840;2022-10-16T06:27:14;7.03;;;1.77;;
18082;SDS011;9168;51.194;6.840;2022-10-16T06:29:41;7.82;;;2.15;;
18082;SDS011;9168;51.194;6.840;2022-10-16T06:32:10;7.13;;;1.88;;
18082;SDS011;9168;51.194;6.840;2022-10-16T06:34:38;6.55;;;2.10;;
18082;SDS011;9168;51.194;6.840;2022-10-16T06:37:06;5.50;;;1.98;;
18082;SDS011;9168;51.194;6.840;2022-10-16T06:39:33;6.32;;;2.03;;
18082;SDS011;9168;51.194;6.840;2022-10-16T06:42:00;5.47;;;2.13;;
18082;SDS011;9168;51.194;6.840;2022-10-16T06:44:27;4.85;;;1.90;;
18082;SDS011;9168;51.194;6.840;2022-10-16T06:46:53;8.68;;;2.30;;
18082;SDS011;9168;51.194;6.840;2022-10-16T06:49:21;6.18;;;2.13;;
18082;SDS011;9168;51.194;6.840;2022-10-16T06:51:49;4.88;;;1.52;;
18082;SDS011;9168;51.194;6.840;2022-10-16T06:54:18;4.72;;;1.55;;
18082;SDS011;9168;51.194;6.840;2022-10-16T06:56:45;4.22;;;1.38;;
18082;SDS011;9168;51.194;6.840;2022-10-16T06:59:12;5.72;;;1.40;;
18082;SDS011;9168;51.194;6.840;2022-10-16T07:01:39;2.17;;;1.20;;
18082;SDS011;9168;51.194;6.840;2022-10-16T07:04:06;1.77;;;1.10;;
18082;SDS011;9168;51.194;6.840;2022-10-16T07:06:33;3.00;;;1.20;;
18082;SDS011;9168;51.194;6.840;2022-10-16T07:09:02;4.97;;;1.70;;
18082;SDS011;9168;51.194;6.840;2022-10-16T07:11:31;5.38;;;1.40;;
18082;SDS011;9168;51.194;6.840;2022-10-16T07:13:58;3.55;;;1.50;;
18082;SDS011;9168;51.194;6.840;2022-10-16T07:16:26;6.57;;;1.40;;
18082;SDS011;9168;51.194;6.840;2022-10-16T07:18:54;3.38;;;1.60;;
18082;SDS011;9168;51.194;6.840;2022-10-16T07:21:24;3.72;;;1.27;;
18082;SDS011;9168;51.194;6.840;2022-10-16T07:23:52;6.53;;;1.77;;
18082;SDS011;9168;51.194;6.840;2022-10-16T07:26:21;5.75;;;1.35;;
18082;SDS011;9168;51.194;6.840;2022-10-16T07:28:48;4.40;;;1.55;;
18082;SDS011;9168;51.194;6.840;2022-10-16T07:31:17;6.60;;;1.42;;
18082;SDS011;9168;51.194;6.840;2022-10-16T07:33:45;3.50;;;1.20;;
18082;SDS011;9168;51.194;6.840;2022-10-16T07:36:13;4.18;;;1.40;;
18082;SDS011;9168;51.194;6.840;2022-10-16T07:38:41;3.20;;;1.23;;
18082;SDS011;9168;51.194;6.840;2022-10-16T07:41:09;3.58;;;1.20;;
18082;SDS011;9168;51.194;6.840;2022-10-16T07:43:39;2.42;;;1.30;;
18082;SDS011;9168;51.194;6.840;2022-10-16T07:46:11;4.88;;;1.33;;
18082;SDS011;9168;51.194;6.840;2022-10-16T07:48:37;4.30;;;1.40;;
18082;SDS011;9168;51.194;6.840;2022-10-16T07:51:05;5.00;;;1.40;;
18082;SDS011;9168;51.194;6.840;2022-10-16T07:53:33;3.00;;;1.35;;
18082;SDS011;9168;51.194;6.840;2022-10-16T07:56:00;5.10;;;1.25;;
18082;SDS011;9168;51.194;6.840;2022-10-16T07:58:28;6.28;;;1.67;;
18082;SDS011;9168;51.194;6.840;2022-10-16T08:00:57;3.75;;;1.38;;
18082;SDS011;9168;51.194;6.840;2022-10-16T08:03:25;5.93;;;1.40;;
18082;SDS011;9168;51.194;6.840;2022-10-16T08:05:52;5.65;;;1.55;;
18082;SDS011;9168;51.194;6.840;2022-10-16T08:08:20;5.03;;;1.60;;
18082;SDS011;9168;51.194;6.840;2022-10-16T08:10:47;6.55;;;1.50;;
18082;SDS011;9168;51.194;6.840;2022-10-16T08:13:14;5.65;;;1.45;;
18082;SDS011;9168;51.194;6.840;2022-10-16T08:15:41;5.90;;;1.70;;
18082;SDS011;9168;51.194;6.840;2022-10-16T08:18:10;5.35;;;1.70;;
18082;SDS011;9168;51.194;6.840;2022-10-16T08:20:38;2.38;;;1.13;;
18082;SDS011;9168;51.194;6.840;2022-10-16T08:23:05;4.32;;;1.50;;
18082;SDS011;9168;51.194;6.840;2022-10-16T08:25:34;7.07;;;1.38;;
18082;SDS011;9168;51.194;6.840;2022-10-16T08:28:02;5.95;;;1.60;;
18082;SDS011;9168;51.194;6.840;2022-10-16T08:30:30;4.20;;;1.27;;
18082;SDS011;9168;51.194;6.840;2022-10-16T08:32:57;5.40;;;1.50;;
18082;SDS011;9168;51.194;6.840;2022-10-16T08:35:25;7.72;;;1.65;;
18082;SDS011;9168;51.194;6.840;2022-10-16T08:37:52;3.35;;;1.58;;
18082;SDS011;9168;51.194;6.840;2022-10-16T08:40:20;6.35;;;2.13;;
18082;SDS011;9168;51.194;6.840;2022-10-16T08:42:53;5.95;;;1.48;;
18082;SDS011;9168;51.194;6.840;2022-10-16T08:45:38;5.90;;;1.48;;
18082;SDS011;9168;51.194;6.840;2022-10-16T08:48:16;2.00;;;1.20;;
18082;SDS011;9168;51.194;6.840;2022-10-16T08:50:49;6.22;;;1.80;;
18082;SDS011;9168;51.194;6.840;2022-10-16T08:53:18;4.13;;;1.70;;
18082;SDS011;9168;51.194;6.840;2022-10-16T08:55:50;4.70;;;1.85;;
18082;SDS011;9168;51.194;6.840;2022-10-16T08:58:19;4.95;;;1.85;;
18082;SDS011;9168;51.194;6.840;2022-10-16T09:00:48;3.33;;;1.40;;
18082;SDS011;9168;51.194;6.840;2022-10-16T09:03:24;4.57;;;1.50;;
18082;SDS011;9168;51.194;6.840;2022-10-16T09:09:01;7.47;;;1.83;;
18082;SDS011;9168;51.194;6.840;2022-10-16T09:11:45;7.82;;;1.45;;
18082;SDS011;9168;51.194;6.840;2022-10-16T09:14:23;3.90;;;1.38;;
18082;SDS011;9168;51.194;6.840;2022-10-16T09:17:07;6.72;;;1.60;;
18082;SDS011;9168;51.194;6.840;2022-10-16T09:19:48;5.43;;;1.20;;
18082;SDS011;9168;51.194;6.840;2022-10-16T09:22:21;3.13;;;1.20;;
18082;SDS011;9168;51.194;6.840;2022-10-16T09:24:53;5.82;;;1.52;;
18082;SDS011;9168;51.194;6.840;2022-10-16T09:27:21;4.00;;;1.35;;
18082;SDS011;9168;51.194;6.840;2022-10-16T09:29:49;6.07;;;1.13;;
18082;SDS011;9168;51.194;6.840;2022-10-16T09:32:17;5.90;;;1.08;;
18082;SDS011;9168;51.194;6.840;2022-10-16T09:34:47;5.25;;;1.40;;
18082;SDS011;9168;51.194;6.840;2022-10-16T09:37:17;5.38;;;1.60;;
18082;SDS011;9168;51.194;6.840;2022-10-16T09:39:48;4.38;;;1.20;;
18082;SDS011;9168;51.194;6.840;2022-10-16T09:42:17;7.00;;;1.98;;
18082;SDS011;9168;51.194;6.840;2022-10-16T09:44:47;4.57;;;1.40;;
18082;SDS011;9168;51.194;6.840;2022-10-16T09:47:16;4.50;;;1.60;;
18082;SDS011;9168;51.194;6.840;2022-10-16T09:49:52;3.00;;;1.30;;
18082;SDS011;9168;51.194;6.840;2022-10-16T09:52:21;5.65;;;1.25;;
18082;SDS011;9168;51.194;6.840;2022-10-16T09:54:50;4.10;;;1.13;;
18082;SDS011;9168;51.194;6.840;2022-10-16T09:57:18;6.28;;;1.23;;
18082;SDS011;9168;51.194;6.840;2022-10-16T09:59:46;4.95;;;1.02;;
18082;SDS011;9168;51.194;6.840;2022-10-16T10:02:15;4.40;;;0.98;;
18082;SDS011;9168;51.194;6.840;2022-10-16T10:04:45;5.07;;;1.10;;
18082;SDS011;9168;51.194;6.840;2022-10-16T10:07:17;6.68;;;1.67;;
18082;SDS011;9168;51.194;6.840;2022-10-16T10:09:46;4.72;;;1.38;;
18082;SDS011;9168;51.194;6.840;2022-10-16T10:12:19;3.70;;;0.90;;
18082;SDS011;9168;51.194;6.840;2022-10-16T10:14:47;5.20;;;1.00;;
18082;SDS011;9168;51.194;6.840;2022-10-16T10:17:17;2.95;;;1.10;;
18082;SDS011;9168;51.194;6.840;2022-10-16T10:19:48;5.20;;;0.90;;
18082;SDS011;9168;51.194;6.840;2022-10-16T10:22:17;3.13;;;0.82;;
18082;SDS011;9168;51.194;6.840;2022-10-16T10:24:56;6.90;;;1.13;;
18082;SDS011;9168;51.194;6.840;2022-10-16T10:27:29;5.40;;;1.17;;
18082;SDS011;9168;51.194;6.840;2022-10-16T10:30:03;3.42;;;0.80;;
18082;SDS011;9168;51.194;6.840;2022-10-16T10:32:38;8.13;;;1.30;;
18082;SDS011;9168;51.194;6.840;2022-10-16T10:35:14;5.13;;;1.13;;
18082;SDS011;9168;51.194;6.840;2022-10-16T10:37:51;4.75;;;1.20;;
18082;SDS011;9168;51.194;6.840;2022-10-16T10:40:32;6.03;;;1.35;;
18082;SDS011;9168;51.194;6.840;2022-10-16T10:43:09;3.67;;;1.00;;
18082;SDS011;9168;51.194;6.840;2022-10-16T10:45:46;3.92;;;1.23;;
18082;SDS011;9168;51.194;6.840;2022-10-16T10:48:20;4.72;;;1.40;;
18082;SDS011;9168;51.194;6.840;2022-10-16T10:50:56;3.40;;;1.00;;
18082;SDS011;9168;51.194;6.840;2022-10-16T10:53:33;7.40;;;1.05;;
18082;SDS011;9168;51.194;6.840;2022-10-16T10:56:12;8.07;;;1.10;;
18082;SDS011;9168;51.194;6.840;2022-10-16T10:58:49;6.43;;;1.02;;
18082;SDS011;9168;51.194;6.840;2022-10-16T11:01:30;5.82;;;1.20;;
18082;SDS011;9168;51.194;6.840;2022-10-16T11:04:14;4.60;;;1.10;;
18082;SDS011;9168;51.194;6.840;2022-10-16T11:06:59;4.65;;;0.98;;
18082;SDS011;9168;51.194;6.840;2022-10-16T11:09:30;7.28;;;1.40;;
18082;SDS011;9168;51.194;6.840;2022-10-16T11:12:01;3.70;;;1.10;;
18082;SDS011;9168;51.194;6.840;2022-10-16T11:14:35;5.35;;;1.25;;
18082;SDS011;9168;51.194;6.840;2022-10-16T11:17:10;3.75;;;0.90;;
18082;SDS011;9168;51.194;6.840;2022-10-16T11:19:41;3.03;;;1.58;;
18082;SDS011;9168;51.194;6.840;2022-10-16T11:22:13;6.10;;;1.65;;
18082;SDS011;9168;51.194;6.840;2022-10-16T11:24:45;4.65;;;1.35;;
18082;SDS011;9168;51.194;6.840;2022-10-16T11:27:17;2.35;;;1.10;;
18082;SDS011;9168;51.194;6.840;2022-10-16T11:29:50;3.95;;;1.45;;
18082;SDS011;9168;51.194;6.840;2022-10-16T11:32:25;6.32;;;1.55;;
18082;SDS011;9168;51.194;6.840;2022-10-16T11:34:57;8.23;;;1.50;;
18082;SDS011;9168;51.194;6.840;2022-10-16T11:37:31;5.63;;;1.50;;
18082;SDS011;9168;51.194;6.840;2022-10-16T11:40:05;7.40;;;1.60;;
18082;SDS011;9168;51.194;6.840;2022-10-16T11:42:46;2.95;;;1.42;;
18082;SDS011;9168;51.194;6.840;2022-10-16T11:45:23;3.80;;;1.30;;
18082;SDS011;9168;51.194;6.840;2022-10-16T11:47:54;4.85;;;1.50;;
18082;SDS011;9168;51.194;6.840;2022-10-16T11:50:28;4.28;;;1.77;;
18082;SDS011;9168;51.194;6.840;2022-10-16T11:53:01;9.23;;;1.50;;
18082;SDS011;9168;51.194;6.840;2022-10-16T11:55:35;2.80;;;1.35;;
18082;SDS011;9168;51.194;6.840;2022-10-16T11:58:03;4.03;;;1.67;;
18082;SDS011;9168;51.194;6.840;2022-10-16T12:00:37;7.40;;;1.23;;
18082;SDS011;9168;51.194;6.840;2022-10-16T12:03:10;4.55;;;1.50;;
18082;SDS011;9168;51.194;6.840;2022-10-16T12:05:49;7.82;;;1.58;;
18082;SDS011;9168;51.194;6.840;2022-10-16T12:08:24;3.67;;;1.63;;
18082;SDS011;9168;51.194;6.840;2022-10-16T12:10:52;8.40;;;1.70;;
18082;SDS011;9168;51.194;6.840;2022-10-16T12:13:30;8.48;;;1.92;;
18082;SDS011;9168;51.194;6.840;2022-10-16T12:16:06;5.72;;;1.70;;
18082;SDS011;9168;51.194;6.840;2022-10-16T12:18:45;8.88;;;1.70;;
18082;SDS011;9168;51.194;6.840;2022-10-16T12:21:13;3.38;;;1.58;;
18082;SDS011;9168;51.194;6.840;2022-10-16T12:23:46;2.95;;;1.42;;
18082;SDS011;9168;51.194;6.840;2022-10-16T12:26:14;4.78;;;1.40;;
18082;SDS011;9168;51.194;6.840;2022-10-16T12:28:50;9.05;;;1.70;;
18082;SDS011;9168;51.194;6.840;2022-10-16T12:31:19;3.50;;;1.55;;
18082;SDS011;9168;51.194;6.840;2022-10-16T12:33:53;5.30;;;1.90;;
18082;SDS011;9168;51.194;6.840;2022-10-16T12:36:27;5.13;;;1.55;;
18082;SDS011;9168;51.194;6.840;2022-10-16T12:38:56;3.22;;;1.23;;
18082;SDS011;9168;51.194;6.840;2022-10-16T12:41:24;3.38;;;1.25;;
18082;SDS011;9168;51.194;6.840;2022-10-16T12:43:52;4.43;;;1.40;;
18082;SDS011;9168;51.194;6.840;2022-10-16T12:51:56;5.53;;;1.15;;
18082;SDS011;9168;51.194;6.840;2022-10-16T12:54:25;7.30;;;1.20;;
18082;SDS011;9168;51.194;6.840;2022-10-16T12:56:58;3.85;;;1.08;;
18082;SDS011;9168;51.194;6.840;2022-10-16T12:59:42;6.53;;;1.58;;
18082;SDS011;9168;51.194;6.840;2022-10-16T13:02:30;5.78;;;1.45;;
18082;SDS011;9168;51.194;6.840;2022-10-16T13:05:24;3.90;;;1.45;;
18082;SDS011;9168;51.194;6.840;2022-10-16T13:08:01;2.55;;;1.15;;
18082;SDS011;9168;51.194;6.840;2022-10-16T13:10:40;5.03;;;1.15;;
18082;SDS011;9168;51.194;6.840;2022-10-16T13:13:14;3.60;;;1.27;;
18082;SDS011;9168;51.194;6.840;2022-10-16T13:16:02;6.03;;;1.75;;
18082;SDS011;9168;51.194;6.840;2022-10-16T13:18:42;3.72;;;1.30;;
18082;SDS011;9168;51.194;6.840;2022-10-16T13:21:25;3.72;;;1.20;;
18082;SDS011;9168;51.194;6.840;2022-10-16T13:24:07;5.57;;;1.50;;
18082;SDS011;9168;51.194;6.840;2022-10-16T13:26:46;5.22;;;1.67;;
18082;SDS011;9168;51.194;6.840;2022-10-16T13:29:23;4.50;;;1.40;;
18082;SDS011;9168;51.194;6.840;2022-10-16T13:31:55;7.47;;;1.23;;
18082;SDS011;9168;51.194;6.840;2022-10-16T13:34:25;6.07;;;1.30;;
18082;SDS011;9168;51.194;6.840;2022-10-16T13:36:53;2.65;;;1.05;;
18082;SDS011;9168;51.194;6.840;2022-10-16T13:39:21;4.45;;;1.40;;
18082;SDS011;9168;51.194;6.840;2022-10-16T13:42:01;4.40;;;1.20;;
18082;SDS011;9168;51.194;6.840;2022-10-16T13:44:31;4.50;;;1.40;;
18082;SDS011;9168;51.194;6.840;2022-10-16T13:47:02;9.77;;;3.72;;
18082;SDS011;9168;51.194;6.840;2022-10-16T13:49:31;9.77;;;1.52;;
18082;SDS011;9168;51.194;6.840;2022-10-16T13:51:58;4.28;;;1.30;;
18082;SDS011;9168;51.194;6.840;2022-10-16T13:54:26;4.55;;;1.45;;
18082;SDS011;9168;51.194;6.840;2022-10-16T13:56:54;5.13;;;1.20;;
18082;SDS011;9168;51.194;6.840;2022-10-16T13:59:23;3.95;;;1.20;;
18082;SDS011;9168;51.194;6.840;2022-10-16T14:01:52;6.45;;;1.48;;
18082;SDS011;9168;51.194;6.840;2022-10-16T14:04:20;4.88;;;1.67;;
18082;SDS011;9168;51.194;6.840;2022-10-16T14:06:50;4.55;;;1.50;;
18082;SDS011;9168;51.194;6.840;2022-10-16T14:09:20;3.75;;;1.20;;
18082;SDS011;9168;51.194;6.840;2022-10-16T14:11:51;3.60;;;1.17;;
18082;SDS011;9168;51.194;6.840;2022-10-16T14:14:23;5.78;;;1.38;;
18082;SDS011;9168;51.194;6.840;2022-10-16T14:16:53;5.72;;;1.17;;
18082;SDS011;9168;51.194;6.840;2022-10-16T14:19:20;3.83;;;1.10;;
18082;SDS011;9168;51.194;6.840;2022-10-16T14:21:51;4.53;;;1.10;;
18082;SDS011;9168;51.194;6.840;2022-10-16T14:24:24;3.63;;;1.10;;
18082;SDS011;9168;51.194;6.840;2022-10-16T14:26:53;3.70;;;1.20;;
18082;SDS011;9168;51.194;6.840;2022-10-16T14:29:21;3.17;;;1.17;;
18082;SDS011;9168;51.194;6.840;2022-10-16T14:31:56;4.18;;;1.25;;
18082;SDS011;9168;51.194;6.840;2022-10-16T14:34:25;4.38;;;0.90;;
18082;SDS011;9168;51.194;6.840;2022-10-16T14:36:55;4.65;;;1.10;;
18082;SDS011;9168;51.194;6.840;2022-10-16T14:39:23;5.05;;;1.33;;
18082;SDS011;9168;51.194;6.840;2022-10-16T14:41:52;4.75;;;1.20;;
18082;SDS011;9168;51.194;6.840;2022-10-16T14:44:23;5.50;;;1.17;;
18082;SDS011;9168;51.194;6.840;2022-10-16T14:46:54;2.53;;;1.13;;
18082;SDS011;9168;51.194;6.840;2022-10-16T14:49:21;3.15;;;1.10;;
18082;SDS011;9168;51.194;6.840;2022-10-16T14:51:49;5.05;;;1.05;;
18082;SDS011;9168;51.194;6.840;2022-10-16T14:54:18;3.42;;;1.20;;
18082;SDS011;9168;51.194;6.840;2022-10-16T14:56:46;4.38;;;1.17;;
18082;SDS011;9168;51.194;6.840;2022-10-16T14:59:16;2.35;;;1.17;;
18082;SDS011;9168;51.194;6.840;2022-10-16T15:01:45;3.33;;;1.00;;
18082;SDS011;9168;51.194;6.840;2022-10-16T15:04:12;2.42;;;0.98;;
18082;SDS011;9168;51.194;6.840;2022-10-16T15:06:39;5.15;;;0.95;;
18082;SDS011;9168;51.194;6.840;2022-10-16T15:09:06;3.00;;;1.20;;
18082;SDS011;9168;51.194;6.840;2022-10-16T15:11:34;2.72;;;0.95;;
18082;SDS011;9168;51.194;6.840;2022-10-16T15:14:02;3.88;;;1.40;;
18082;SDS011;9168;51.194;6.840;2022-10-16T15:16:29;2.45;;;1.00;;
18082;SDS011;9168;51.194;6.840;2022-10-16T15:18:57;5.63;;;1.20;;
18082;SDS011;9168;51.194;6.840;2022-10-16T15:21:24;5.57;;;1.40;;
18082;SDS011;9168;51.194;6.840;2022-10-16T15:23:53;5.03;;;1.20;;
18082;SDS011;9168;51.194;6.840;2022-10-16T15:26:21;8.20;;;1.50;;